sensor_id;sensor_type;location;lat;lon;timestamp;pressure;altitude;pressure_sealevel;temperature;humidity
10700;BME280;5401;41.986;21.452;2023-04-27T00:02:19;98345.69;;;10.39;58.37
10700;BME280;5401;41.986;21.452;2023-04-27T00:04:47;98350.22;;;10.38;57.97
10700;BME280;5401;41.986;21.452;2023-04-27T00:07:15;98345.06;;;10.37;58.16
10700;BME280;5401;41.986;21.452;2023-04-27T00:09:43;98344.66;;;10.33;58.22
10700;BME280;5401;41.986;21.452;2023-04-27T00:12:10;98347.78;;;10.31;57.88
10700;BME280;5401;41.986;21.452;2023-04-27T00:14:38;98343.84;;;10.33;58.14
10700;BME280;5401;41.986;21.452;2023-04-27T00:17:05;98350.22;;;10.32;58.27
10700;BME280;5401;41.986;21.452;2023-04-27T00:19:33;98335.81;;;10.33;57.54
10700;BME280;5401;41.986;21.452;2023-04-27T00:22:02;98350.44;;;10.31;58.13
10700;BME280;5401;41.986;21.452;2023-04-27T00:24:29;98342.44;;;10.31;57.83
10700;BME280;5401;41.986;21.452;2023-04-27T00:26:57;98340.56;;;10.31;57.69
10700;BME280;5401;41.986;21.452;2023-04-27T00:29:25;98338.09;;;10.30;57.73
10700;BME280;5401;41.986;21.452;2023-04-27T00:31:52;98326.56;;;10.29;57.77
10700;BME280;5401;41.986;21.452;2023-04-27T00:34:20;98330.06;;;10.30;57.06
10700;BME280;5401;41.986;21.452;2023-04-27T00:36:47;98328.44;;;10.29;57.18
10700;BME280;5401;41.986;21.452;2023-04-27T00:39:16;98324.94;;;10.28;57.39
10700;BME280;5401;41.986;21.452;2023-04-27T00:41:43;98332.97;;;10.28;57.09
10700;BME280;5401;41.986;21.452;2023-04-27T00:44:11;98321.66;;;10.26;57.43
10700;BME280;5401;41.986;21.452;2023-04-27T00:46:39;98323.50;;;10.26;57.06
10700;BME280;5401;41.986;21.452;2023-04-27T00:49:07;98318.97;;;10.26;57.14
10700;BME280;5401;41.986;21.452;2023-04-27T00:51:35;98312.78;;;10.26;57.08
10700;BME280;5401;41.986;21.452;2023-04-27T00:54:03;98325.56;;;10.24;57.04
10700;BME280;5401;41.986;21.452;2023-04-27T00:56:32;98321.25;;;10.23;56.70
10700;BME280;5401;41.986;21.452;2023-04-27T00:58:59;98307.88;;;10.23;56.22
10700;BME280;5401;41.986;21.452;2023-04-27T01:01:28;98331.94;;;10.23;56.61
10700;BME280;5401;41.986;21.452;2023-04-27T01:03:56;98324.75;;;10.23;56.94
10700;BME280;5401;41.986;21.452;2023-04-27T01:06:23;98326.81;;;10.21;56.68
10700;BME280;5401;41.986;21.452;2023-04-27T01:08:53;98329.69;;;10.20;56.00
10700;BME280;5401;41.986;21.452;2023-04-27T01:11:20;98332.59;;;10.18;55.99
10700;BME280;5401;41.986;21.452;2023-04-27T01:13:50;98338.75;;;10.19;56.02
10700;BME280;5401;41.986;21.452;2023-04-27T01:16:17;98337.31;;;10.16;55.80
10700;BME280;5401;41.986;21.452;2023-04-27T01:18:45;98336.47;;;10.16;56.43
10700;BME280;5401;41.986;21.452;2023-04-27T01:21:13;98336.47;;;10.16;56.23
10700;BME280;5401;41.986;21.452;2023-04-27T01:23:43;98339.59;;;10.13;56.15
10700;BME280;5401;41.986;21.452;2023-04-27T01:26:11;98350.28;;;10.13;56.54
10700;BME280;5401;41.986;21.452;2023-04-27T01:28:41;98345.38;;;10.10;56.31
10700;BME280;5401;41.986;21.452;2023-04-27T01:31:09;98343.91;;;10.07;55.86
10700;BME280;5401;41.986;21.452;2023-04-27T01:33:37;98352.38;;;10.04;56.06
10700;BME280;5401;41.986;21.452;2023-04-27T01:36:05;98347.84;;;10.05;56.34
10700;BME280;5401;41.986;21.452;2023-04-27T01:38:34;98357.53;;;10.06;56.35
10700;BME280;5401;41.986;21.452;2023-04-27T01:41:04;98343.13;;;10.00;55.94
10700;BME280;5401;41.986;21.452;2023-04-27T01:43:34;98355.44;;;10.01;56.57
10700;BME280;5401;41.986;21.452;2023-04-27T01:46:05;98354.03;;;9.99;56.54
10700;BME280;5401;41.986;21.452;2023-04-27T01:48:33;98350.13;;;9.95;55.68
10700;BME280;5401;41.986;21.452;2023-04-27T01:51:01;98358.34;;;9.94;56.67
10700;BME280;5401;41.986;21.452;2023-04-27T01:53:28;98357.53;;;9.93;56.28
10700;BME280;5401;41.986;21.452;2023-04-27T01:55:56;98365.75;;;9.92;55.77
10700;BME280;5401;41.986;21.452;2023-04-27T01:58:26;98350.75;;;9.91;56.46
10700;BME280;5401;41.986;21.452;2023-04-27T02:00:54;98353.59;;;9.89;56.27
10700;BME280;5401;41.986;21.452;2023-04-27T02:03:22;98357.94;;;9.90;56.34
10700;BME280;5401;41.986;21.452;2023-04-27T02:05:49;98364.94;;;9.91;56.21
10700;BME280;5401;41.986;21.452;2023-04-27T02:08:17;98364.28;;;9.89;55.53
10700;BME280;5401;41.986;21.452;2023-04-27T02:10:44;98372.31;;;9.89;55.75
10700;BME280;5401;41.986;21.452;2023-04-27T02:13:12;98365.97;;;9.90;55.77
10700;BME280;5401;41.986;21.452;2023-04-27T02:15:40;98365.97;;;9.90;55.47
10700;BME280;5401;41.986;21.452;2023-04-27T02:18:08;98359.38;;;9.86;55.99
10700;BME280;5401;41.986;21.452;2023-04-27T02:20:35;98376.22;;;9.87;55.19
10700;BME280;5401;41.986;21.452;2023-04-27T02:23:03;98373.75;;;9.85;55.25
10700;BME280;5401;41.986;21.452;2023-04-27T02:25:30;98368.19;;;9.87;55.76
10700;BME280;5401;41.986;21.452;2023-04-27T02:27:58;98385.91;;;9.88;55.08
10700;BME280;5401;41.986;21.452;2023-04-27T02:30:25;98379.72;;;9.87;55.79
10700;BME280;5401;41.986;21.452;2023-04-27T02:32:56;98378.91;;;9.87;55.15
10700;BME280;5401;41.986;21.452;2023-04-27T02:35:23;98384.44;;;9.85;55.55
10700;BME280;5401;41.986;21.452;2023-04-27T02:37:51;98375.59;;;9.85;55.78
10700;BME280;5401;41.986;21.452;2023-04-27T02:40:18;98380.13;;;9.84;54.84
10700;BME280;5401;41.986;21.452;2023-04-27T02:42:46;98376.03;;;9.82;55.55
10700;BME280;5401;41.986;21.452;2023-04-27T02:45:13;98382.41;;;9.81;55.71
10700;BME280;5401;41.986;21.452;2023-04-27T02:47:41;98384.06;;;9.82;55.03
10700;BME280;5401;41.986;21.452;2023-04-27T02:50:10;98379.72;;;9.81;55.15
10700;BME280;5401;41.986;21.452;2023-04-27T02:52:38;98387.13;;;9.79;55.66
10700;BME280;5401;41.986;21.452;2023-04-27T02:55:06;98386.50;;;9.77;55.13
10700;BME280;5401;41.986;21.452;2023-04-27T02:57:34;98384.03;;;9.75;55.53
10700;BME280;5401;41.986;21.452;2023-04-27T03:00:01;98381.78;;;9.72;55.03
10700;BME280;5401;41.986;21.452;2023-04-27T03:02:30;98389.38;;;9.69;55.79
10700;BME280;5401;41.986;21.452;2023-04-27T03:04:57;98397.41;;;9.69;54.84
10700;BME280;5401;41.986;21.452;2023-04-27T03:07:26;98390.22;;;9.69;55.07
10700;BME280;5401;41.986;21.452;2023-04-27T03:09:54;98402.75;;;9.69;55.27
10700;BME280;5401;41.986;21.452;2023-04-27T03:12:21;98402.13;;;9.67;55.38
10700;BME280;5401;41.986;21.452;2023-04-27T03:14:49;98397.63;;;9.67;55.68
10700;BME280;5401;41.986;21.452;2023-04-27T03:17:16;98392.28;;;9.67;55.37
10700;BME280;5401;41.986;21.452;2023-04-27T03:19:46;98399.28;;;9.68;55.55
10700;BME280;5401;41.986;21.452;2023-04-27T03:22:13;98400.09;;;9.69;54.63
10700;BME280;5401;41.986;21.452;2023-04-27T03:24:42;98390.44;;;9.68;54.60
10700;BME280;5401;41.986;21.452;2023-04-27T03:27:10;98394.75;;;9.69;55.52
10700;BME280;5401;41.986;21.452;2023-04-27T03:29:39;98400.09;;;9.69;54.63
10700;BME280;5401;41.986;21.452;2023-04-27T03:32:06;98396.41;;;9.70;55.33
10700;BME280;5401;41.986;21.452;2023-04-27T03:34:34;98402.56;;;9.70;54.99
10700;BME280;5401;41.986;21.452;2023-04-27T03:37:01;98398.84;;;9.71;54.96
10700;BME280;5401;41.986;21.452;2023-04-27T03:39:29;98410.78;;;9.75;54.82
10700;BME280;5401;41.986;21.452;2023-04-27T03:41:58;98402.75;;;9.75;54.54
10700;BME280;5401;41.986;21.452;2023-04-27T03:44:25;98403.16;;;9.79;55.02
10700;BME280;5401;41.986;21.452;2023-04-27T03:46:53;98407.50;;;9.86;55.04
10700;BME280;5401;41.986;21.452;2023-04-27T03:49:20;98412.06;;;9.92;54.70
10700;BME280;5401;41.986;21.452;2023-04-27T03:51:48;98414.50;;;10.00;54.01
10700;BME280;5401;41.986;21.452;2023-04-27T03:54:15;98411.63;;;10.08;54.29
10700;BME280;5401;41.986;21.452;2023-04-27T03:56:43;98416.97;;;10.14;53.96
10700;BME280;5401;41.986;21.452;2023-04-27T03:59:12;98419.63;;;10.21;54.23
10700;BME280;5401;41.986;21.452;2023-04-27T04:01:39;98412.63;;;10.26;54.29
10700;BME280;5401;41.986;21.452;2023-04-27T04:04:06;98414.22;;;10.33;53.79
10700;BME280;5401;41.986;21.452;2023-04-27T04:06:34;98425.75;;;10.40;53.55
10700;BME280;5401;41.986;21.452;2023-04-27T04:09:01;98423.47;;;10.50;53.91
10700;BME280;5401;41.986;21.452;2023-04-27T04:11:29;98429.28;;;10.97;53.34
10700;BME280;5401;41.986;21.452;2023-04-27T04:13:57;98433.22;;;11.93;52.15
10700;BME280;5401;41.986;21.452;2023-04-27T04:16:26;98432.78;;;12.38;51.21
10700;BME280;5401;41.986;21.452;2023-04-27T04:18:53;98426.72;;;12.84;50.41
10700;BME280;5401;41.986;21.452;2023-04-27T04:21:21;98437.44;;;13.78;49.40
10700;BME280;5401;41.986;21.452;2023-04-27T04:23:48;98442.09;;;14.45;49.70
10700;BME280;5401;41.986;21.452;2023-04-27T04:26:16;98440.69;;;15.55;47.99
10700;BME280;5401;41.986;21.452;2023-04-27T04:28:43;98438.72;;;16.76;46.80
10700;BME280;5401;41.986;21.452;2023-04-27T04:31:11;98441.22;;;17.88;45.52
10700;BME280;5401;41.986;21.452;2023-04-27T04:33:41;98449.44;;;18.96;43.46
10700;BME280;5401;41.986;21.452;2023-04-27T04:36:09;98447.69;;;19.92;42.76
10700;BME280;5401;41.986;21.452;2023-04-27T04:38:37;98451.78;;;20.88;41.83
10700;BME280;5401;41.986;21.452;2023-04-27T04:41:04;98453.19;;;21.68;40.76
10700;BME280;5401;41.986;21.452;2023-04-27T04:43:32;98454.38;;;22.38;39.44
10700;BME280;5401;41.986;21.452;2023-04-27T04:45:59;98458.31;;;22.93;38.98
10700;BME280;5401;41.986;21.452;2023-04-27T04:48:27;98463.44;;;23.46;38.42
10700;BME280;5401;41.986;21.452;2023-04-27T04:50:56;98471.53;;;23.97;37.63
10700;BME280;5401;41.986;21.452;2023-04-27T04:53:23;98478.53;;;24.44;37.17
10700;BME280;5401;41.986;21.452;2023-04-27T04:55:51;98484.06;;;24.89;36.45
10700;BME280;5401;41.986;21.452;2023-04-27T04:58:18;98478.91;;;25.33;36.29
10700;BME280;5401;41.986;21.452;2023-04-27T05:00:46;98481.19;;;25.57;35.58
10700;BME280;5401;41.986;21.452;2023-04-27T05:03:13;98479.56;;;25.70;35.34
10700;BME280;5401;41.986;21.452;2023-04-27T05:05:41;98484.94;;;25.88;35.16
10700;BME280;5401;41.986;21.452;2023-04-27T05:08:10;98482.38;;;26.05;35.35
10700;BME280;5401;41.986;21.452;2023-04-27T05:10:38;98491.91;;;26.20;35.01
10700;BME280;5401;41.986;21.452;2023-04-27T05:13:05;98497.28;;;26.25;35.26
10700;BME280;5401;41.986;21.452;2023-04-27T05:15:33;98495.25;;;26.31;35.22
10700;BME280;5401;41.986;21.452;2023-04-27T05:18:00;98495.75;;;26.33;34.70
10700;BME280;5401;41.986;21.452;2023-04-27T05:20:28;98495.69;;;26.24;34.66
10700;BME280;5401;41.986;21.452;2023-04-27T05:22:55;98504.72;;;26.25;35.18
10700;BME280;5401;41.986;21.452;2023-04-27T05:25:24;98499.22;;;26.25;34.69
10700;BME280;5401;41.986;21.452;2023-04-27T05:27:52;98491.38;;;26.32;35.02
10700;BME280;5401;41.986;21.452;2023-04-27T05:30:19;98501.38;;;26.28;35.05
10700;BME280;5401;41.986;21.452;2023-04-27T05:32:47;98487.50;;;26.33;34.38
10700;BME280;5401;41.986;21.452;2023-04-27T05:35:14;98494.88;;;26.46;34.55
10700;BME280;5401;41.986;21.452;2023-04-27T05:37:42;98491.09;;;26.55;34.73
10700;BME280;5401;41.986;21.452;2023-04-27T05:40:10;98486.66;;;26.67;34.50
10700;BME280;5401;41.986;21.452;2023-04-27T05:42:39;98488.16;;;26.87;33.86
10700;BME280;5401;41.986;21.452;2023-04-27T05:45:09;98474.88;;;26.67;34.29
10700;BME280;5401;41.986;21.452;2023-04-27T05:47:37;98484.47;;;26.78;34.06
10700;BME280;5401;41.986;21.452;2023-04-27T05:50:05;98489.56;;;27.06;33.91
10700;BME280;5401;41.986;21.452;2023-04-27T05:52:33;98487.97;;;27.35;33.50
10700;BME280;5401;41.986;21.452;2023-04-27T05:55:01;98483.16;;;27.40;33.58
10700;BME280;5401;41.986;21.452;2023-04-27T05:57:29;98476.63;;;27.06;33.19
10700;BME280;5401;41.986;21.452;2023-04-27T05:59:58;98470.28;;;26.97;33.39
10700;BME280;5401;41.986;21.452;2023-04-27T06:02:26;98475.69;;;27.11;33.11
10700;BME280;5401;41.986;21.452;2023-04-27T06:04:55;98468.16;;;27.25;33.51
10700;BME280;5401;41.986;21.452;2023-04-27T06:07:22;98489.53;;;27.27;32.81
10700;BME280;5401;41.986;21.452;2023-04-27T06:09:50;98485.81;;;27.32;32.89
10700;BME280;5401;41.986;21.452;2023-04-27T06:12:17;98481.59;;;27.26;32.75
10700;BME280;5401;41.986;21.452;2023-04-27T06:14:44;98484.78;;;27.20;32.78
10700;BME280;5401;41.986;21.452;2023-04-27T06:17:13;98483.94;;;27.11;32.11
10700;BME280;5401;41.986;21.452;2023-04-27T06:19:41;98478.66;;;27.23;32.58
10700;BME280;5401;41.986;21.452;2023-04-27T06:22:09;98479.28;;;27.41;32.17
10700;BME280;5401;41.986;21.452;2023-04-27T06:24:36;98483.38;;;27.52;31.86
10700;BME280;5401;41.986;21.452;2023-04-27T06:27:05;98478.06;;;27.64;31.58
10700;BME280;5401;41.986;21.452;2023-04-27T06:29:32;98484.06;;;27.66;31.38
10700;BME280;5401;41.986;21.452;2023-04-27T06:31:59;98486.03;;;27.65;31.41
10700;BME280;5401;41.986;21.452;2023-04-27T06:34:32;98477.78;;;27.74;31.35
10700;BME280;5401;41.986;21.452;2023-04-27T06:37:00;98479.88;;;27.77;31.18
10700;BME280;5401;41.986;21.452;2023-04-27T06:39:28;98480.38;;;27.70;30.98
10700;BME280;5401;41.986;21.452;2023-04-27T06:41:55;98481.50;;;27.69;30.69
10700;BME280;5401;41.986;21.452;2023-04-27T06:44:23;98489.69;;;27.61;30.88
10700;BME280;5401;41.986;21.452;2023-04-27T06:46:50;98495.09;;;27.66;30.91
10700;BME280;5401;41.986;21.452;2023-04-27T06:49:18;98494.50;;;27.77;30.63
10700;BME280;5401;41.986;21.452;2023-04-27T06:51:47;98491.78;;;27.94;30.38
10700;BME280;5401;41.986;21.452;2023-04-27T06:54:16;98492.13;;;28.01;30.20
10700;BME280;5401;41.986;21.452;2023-04-27T06:56:43;98489.56;;;28.04;30.24
10700;BME280;5401;41.986;21.452;2023-04-27T06:59:11;98492.94;;;28.01;30.18
10700;BME280;5401;41.986;21.452;2023-04-27T07:01:39;98489.25;;;28.06;30.05
10700;BME280;5401;41.986;21.452;2023-04-27T07:04:06;98484.56;;;28.15;29.92
10700;BME280;5401;41.986;21.452;2023-04-27T07:06:34;98490.47;;;27.92;30.17
10700;BME280;5401;41.986;21.452;2023-04-27T07:09:03;98489.28;;;27.67;29.96
10700;BME280;5401;41.986;21.452;2023-04-27T07:11:31;98492.66;;;27.73;29.78
10700;BME280;5401;41.986;21.452;2023-04-27T07:13:58;98493.69;;;27.85;29.69
10700;BME280;5401;41.986;21.452;2023-04-27T07:16:26;98497.38;;;27.81;29.89
10700;BME280;5401;41.986;21.452;2023-04-27T07:18:53;98494.34;;;27.91;29.70
10700;BME280;5401;41.986;21.452;2023-04-27T07:21:21;98494.22;;;27.96;29.56
10700;BME280;5401;41.986;21.452;2023-04-27T07:23:48;98494.09;;;28.00;29.55
10700;BME280;5401;41.986;21.452;2023-04-27T07:26:17;98493.72;;;27.94;29.32
10700;BME280;5401;41.986;21.452;2023-04-27T07:28:45;98503.41;;;27.91;29.35
10700;BME280;5401;41.986;21.452;2023-04-27T07:31:13;98510.56;;;27.92;29.41
10700;BME280;5401;41.986;21.452;2023-04-27T07:33:40;98510.25;;;27.94;29.25
10700;BME280;5401;41.986;21.452;2023-04-27T07:36:08;98508.78;;;27.96;29.30
10700;BME280;5401;41.986;21.452;2023-04-27T07:38:35;98511.66;;;27.91;29.37
10700;BME280;5401;41.986;21.452;2023-04-27T07:41:03;98507.75;;;27.75;29.13
10700;BME280;5401;41.986;21.452;2023-04-27T07:43:32;98506.38;;;27.56;29.52
10700;BME280;5401;41.986;21.452;2023-04-27T07:46:00;98510.03;;;27.43;29.32
10700;BME280;5401;41.986;21.452;2023-04-27T07:48:28;98504.88;;;27.28;29.07
10700;BME280;5401;41.986;21.452;2023-04-27T07:50:56;98511.53;;;27.27;29.63
10700;BME280;5401;41.986;21.452;2023-04-27T07:53:23;98506.16;;;27.23;29.43
10700;BME280;5401;41.986;21.452;2023-04-27T07:55:51;98512.50;;;27.01;29.22
10700;BME280;5401;41.986;21.452;2023-04-27T07:58:19;98501.31;;;26.98;29.58
10700;BME280;5401;41.986;21.452;2023-04-27T08:00:48;98503.31;;;27.06;29.40
10700;BME280;5401;41.986;21.452;2023-04-27T08:03:15;98496.56;;;27.12;29.49
10700;BME280;5401;41.986;21.452;2023-04-27T08:05:43;98496.06;;;27.10;29.22
10700;BME280;5401;41.986;21.452;2023-04-27T08:08:10;98497.50;;;27.07;29.39
10700;BME280;5401;41.986;21.452;2023-04-27T08:10:38;98491.13;;;26.98;29.12
10700;BME280;5401;41.986;21.452;2023-04-27T08:13:07;98500.06;;;26.82;29.24
10700;BME280;5401;41.986;21.452;2023-04-27T08:15:35;98480.13;;;26.55;29.41
10700;BME280;5401;41.986;21.452;2023-04-27T08:18:04;98482.16;;;26.50;29.33
10700;BME280;5401;41.986;21.452;2023-04-27T08:20:31;98485.03;;;26.45;28.98
10700;BME280;5401;41.986;21.452;2023-04-27T08:22:59;98482.31;;;26.31;29.07
10700;BME280;5401;41.986;21.452;2023-04-27T08:25:27;98480.13;;;25.93;29.20
10700;BME280;5401;41.986;21.452;2023-04-27T08:27:55;98489.41;;;25.71;28.94
10700;BME280;5401;41.986;21.452;2023-04-27T08:30:22;98485.34;;;25.68;28.99
10700;BME280;5401;41.986;21.452;2023-04-27T08:32:50;98487.78;;;25.70;29.39
10700;BME280;5401;41.986;21.452;2023-04-27T08:35:20;98481.91;;;25.76;29.69
10700;BME280;5401;41.986;21.452;2023-04-27T08:37:48;98481.28;;;25.79;29.36
10700;BME280;5401;41.986;21.452;2023-04-27T08:40:15;98481.09;;;25.76;28.87
10700;BME280;5401;41.986;21.452;2023-04-27T08:42:53;98479.16;;;25.76;29.39
10700;BME280;5401;41.986;21.452;2023-04-27T08:45:21;98474.31;;;25.28;29.29
10700;BME280;5401;41.986;21.452;2023-04-27T08:47:50;98467.63;;;25.21;29.25
10700;BME280;5401;41.986;21.452;2023-04-27T08:50:18;98474.72;;;25.22;29.66
10700;BME280;5401;41.986;21.452;2023-04-27T08:52:47;98475.44;;;25.14;29.26
10700;BME280;5401;41.986;21.452;2023-04-27T08:55:15;98476.13;;;25.06;29.35
10700;BME280;5401;41.986;21.452;2023-04-27T08:57:53;98468.69;;;24.93;29.44
10700;BME280;5401;41.986;21.452;2023-04-27T09:00:21;98473.16;;;24.71;29.74
10700;BME280;5401;41.986;21.452;2023-04-27T09:02:49;98471.34;;;24.48;29.71
10700;BME280;5401;41.986;21.452;2023-04-27T09:05:19;98461.06;;;24.22;30.00
10700;BME280;5401;41.986;21.452;2023-04-27T09:07:58;98458.91;;;24.19;29.85
10700;BME280;5401;41.986;21.452;2023-04-27T09:10:26;98456.13;;;24.24;29.80
10700;BME280;5401;41.986;21.452;2023-04-27T09:12:56;98467.00;;;24.29;29.72
10700;BME280;5401;41.986;21.452;2023-04-27T09:15:23;98456.69;;;24.39;29.57
10700;BME280;5401;41.986;21.452;2023-04-27T09:17:54;98463.22;;;24.43;29.93
10700;BME280;5401;41.986;21.452;2023-04-27T09:20:22;98461.22;;;24.49;29.67
10700;BME280;5401;41.986;21.452;2023-04-27T09:22:53;98456.66;;;24.58;29.70
10700;BME280;5401;41.986;21.452;2023-04-27T09:25:28;98453.13;;;24.57;29.41
10700;BME280;5401;41.986;21.452;2023-04-27T09:27:57;98460.44;;;24.62;29.96
10700;BME280;5401;41.986;21.452;2023-04-27T09:30:25;98455.88;;;24.57;29.73
10700;BME280;5401;41.986;21.452;2023-04-27T09:32:54;98454.78;;;24.58;29.45
10700;BME280;5401;41.986;21.452;2023-04-27T09:35:23;98451.00;;;24.54;29.42
10700;BME280;5401;41.986;21.452;2023-04-27T09:37:51;98446.50;;;24.45;29.60
10700;BME280;5401;41.986;21.452;2023-04-27T09:40:20;98442.97;;;24.26;29.35
10700;BME280;5401;41.986;21.452;2023-04-27T09:42:53;98444.41;;;24.19;29.54
10700;BME280;5401;41.986;21.452;2023-04-27T09:45:22;98431.69;;;24.09;29.67
10700;BME280;5401;41.986;21.452;2023-04-27T09:47:49;98434.66;;;23.95;29.73
10700;BME280;5401;41.986;21.452;2023-04-27T09:50:17;98422.69;;;23.91;29.82
10700;BME280;5401;41.986;21.452;2023-04-27T09:52:45;98424.00;;;23.75;30.05
10700;BME280;5401;41.986;21.452;2023-04-27T09:55:15;98426.06;;;23.64;29.85
10700;BME280;5401;41.986;21.452;2023-04-27T09:58:10;98421.22;;;23.57;29.89
10700;BME280;5401;41.986;21.452;2023-04-27T10:00:47;98417.13;;;23.54;29.86
10700;BME280;5401;41.986;21.452;2023-04-27T10:03:22;98419.13;;;23.72;29.80
10700;BME280;5401;41.986;21.452;2023-04-27T10:09:12;98422.44;;;23.87;29.83
10700;BME280;5401;41.986;21.452;2023-04-27T10:11:41;98414.41;;;23.96;29.60
10700;BME280;5401;41.986;21.452;2023-04-27T10:14:16;98429.84;;;24.05;29.59
10700;BME280;5401;41.986;21.452;2023-04-27T10:16:43;98424.75;;;24.17;29.52
10700;BME280;5401;41.986;21.452;2023-04-27T10:19:12;98425.44;;;24.27;29.39
10700;BME280;5401;41.986;21.452;2023-04-27T10:21:53;98426.97;;;24.33;29.36
10700;BME280;5401;41.986;21.452;2023-04-27T10:24:33;98425.03;;;24.34;29.44
10700;BME280;5401;41.986;21.452;2023-04-27T10:27:03;98418.53;;;24.30;29.51
10700;BME280;5401;41.986;21.452;2023-04-27T10:29:37;98418.47;;;24.16;29.30
10700;BME280;5401;41.986;21.452;2023-04-27T10:32:06;98413.44;;;24.05;29.28
10700;BME280;5401;41.986;21.452;2023-04-27T10:34:34;98417.72;;;23.93;29.57
10700;BME280;5401;41.986;21.452;2023-04-27T10:37:06;98410.97;;;23.85;29.48
10700;BME280;5401;41.986;21.452;2023-04-27T10:39:35;98403.81;;;23.71;29.68
10700;BME280;5401;41.986;21.452;2023-04-27T10:42:03;98404.13;;;23.69;29.88
10700;BME280;5401;41.986;21.452;2023-04-27T10:44:32;98399.78;;;23.45;29.87
10700;BME280;5401;41.986;21.452;2023-04-27T10:47:12;98402.09;;;23.10;29.61
10700;BME280;5401;41.986;21.452;2023-04-27T10:49:39;98389.41;;;22.73;29.75
10700;BME280;5401;41.986;21.452;2023-04-27T10:52:07;98392.38;;;22.10;30.24
10700;BME280;5401;41.986;21.452;2023-04-27T10:54:35;98393.13;;;21.83;30.22
10700;BME280;5401;41.986;21.452;2023-04-27T10:57:05;98389.66;;;21.72;30.28
10700;BME280;5401;41.986;21.452;2023-04-27T10:59:34;98392.06;;;21.79;30.52
10700;BME280;5401;41.986;21.452;2023-04-27T11:02:03;98387.81;;;22.01;30.45
10700;BME280;5401;41.986;21.452;2023-04-27T11:04:37;98377.56;;;22.26;30.34
10700;BME280;5401;41.986;21.452;2023-04-27T11:07:05;98376.53;;;22.50;30.35
10700;BME280;5401;41.986;21.452;2023-04-27T11:09:34;98374.28;;;22.52;30.10
10700;BME280;5401;41.986;21.452;2023-04-27T11:12:05;98376.72;;;22.30;29.96
10700;BME280;5401;41.986;21.452;2023-04-27T11:14:34;98376.47;;;22.27;29.84
10700;BME280;5401;41.986;21.452;2023-04-27T11:17:04;98371.59;;;22.19;30.30
10700;BME280;5401;41.986;21.452;2023-04-27T11:19:31;98355.69;;;21.98;30.37
10700;BME280;5401;41.986;21.452;2023-04-27T11:22:02;98350.28;;;21.88;30.16
10700;BME280;5401;41.986;21.452;2023-04-27T11:24:31;98360.06;;;21.94;29.75
10700;BME280;5401;41.986;21.452;2023-04-27T11:26:59;98349.44;;;21.92;29.63
10700;BME280;5401;41.986;21.452;2023-04-27T11:29:36;98351.56;;;22.00;30.24
10700;BME280;5401;41.986;21.452;2023-04-27T11:32:06;98354.81;;;22.02;29.52
10700;BME280;5401;41.986;21.452;2023-04-27T11:34:33;98348.25;;;22.03;29.67
10700;BME280;5401;41.986;21.452;2023-04-27T11:37:05;98353.31;;;22.19;29.63
10700;BME280;5401;41.986;21.452;2023-04-27T11:39:37;98350.16;;;22.36;29.89
10700;BME280;5401;41.986;21.452;2023-04-27T11:42:19;98351.00;;;22.64;29.29
10700;BME280;5401;41.986;21.452;2023-04-27T11:44:52;98352.84;;;22.69;29.52
10700;BME280;5401;41.986;21.452;2023-04-27T11:47:22;98351.91;;;22.78;29.05
10700;BME280;5401;41.986;21.452;2023-04-27T11:49:50;98344.41;;;22.65;29.43
10700;BME280;5401;41.986;21.452;2023-04-27T11:52:18;98321.44;;;22.71;29.35
10700;BME280;5401;41.986;21.452;2023-04-27T11:54:49;98339.84;;;22.84;29.23
10700;BME280;5401;41.986;21.452;2023-04-27T11:57:23;98348.00;;;22.89;29.77
10700;BME280;5401;41.986;21.452;2023-04-27T11:59:51;98343.09;;;22.91;29.23
10700;BME280;5401;41.986;21.452;2023-04-27T12:02:19;98337.94;;;22.85;29.79
10700;BME280;5401;41.986;21.452;2023-04-27T12:04:48;98325.28;;;22.70;29.78
10700;BME280;5401;41.986;21.452;2023-04-27T12:07:16;98325.59;;;22.64;29.81
10700;BME280;5401;41.986;21.452;2023-04-27T12:09:44;98330.84;;;22.32;29.70
10700;BME280;5401;41.986;21.452;2023-04-27T12:12:11;98330.22;;;22.07;29.25
10700;BME280;5401;41.986;21.452;2023-04-27T12:14:41;98333.16;;;21.83;30.05
10700;BME280;5401;41.986;21.452;2023-04-27T12:17:09;98329.81;;;21.57;29.57
10700;BME280;5401;41.986;21.452;2023-04-27T12:19:36;98324.44;;;21.38;30.00
10700;BME280;5401;41.986;21.452;2023-04-27T12:22:05;98325.81;;;21.45;30.38
10700;BME280;5401;41.986;21.452;2023-04-27T12:24:33;98324.94;;;21.49;30.15
10700;BME280;5401;41.986;21.452;2023-04-27T12:27:01;98329.81;;;21.57;30.14
10700;BME280;5401;41.986;21.452;2023-04-27T12:29:29;98310.75;;;21.52;29.90
10700;BME280;5401;41.986;21.452;2023-04-27T12:31:57;98321.31;;;21.64;29.93
10700;BME280;5401;41.986;21.452;2023-04-27T12:34:25;98320.97;;;21.70;29.56
10700;BME280;5401;41.986;21.452;2023-04-27T12:36:53;98324.78;;;21.74;29.55
10700;BME280;5401;41.986;21.452;2023-04-27T12:39:22;98327.03;;;21.62;30.03
10700;BME280;5401;41.986;21.452;2023-04-27T12:41:51;98328.38;;;21.65;29.92
10700;BME280;5401;41.986;21.452;2023-04-27T12:44:19;98312.53;;;21.72;30.03
10700;BME280;5401;41.986;21.452;2023-04-27T12:46:47;98326.84;;;21.87;29.23
10700;BME280;5401;41.986;21.452;2023-04-27T12:49:15;98319.84;;;21.76;29.57
10700;BME280;5401;41.986;21.452;2023-04-27T12:51:43;98333.81;;;21.65;29.76
10700;BME280;5401;41.986;21.452;2023-04-27T12:54:13;98316.84;;;21.40;30.14
10700;BME280;5401;41.986;21.452;2023-04-27T12:56:41;98311.41;;;21.30;29.88
10700;BME280;5401;41.986;21.452;2023-04-27T12:59:09;98318.19;;;21.42;29.31
10700;BME280;5401;41.986;21.452;2023-04-27T13:01:37;98314.75;;;21.65;29.72
10700;BME280;5401;41.986;21.452;2023-04-27T13:04:05;98312.19;;;21.78;29.94
10700;BME280;5401;41.986;21.452;2023-04-27T13:06:33;98302.50;;;21.95;29.29
10700;BME280;5401;41.986;21.452;2023-04-27T13:09:00;98305.53;;;21.94;29.28
10700;BME280;5401;41.986;21.452;2023-04-27T13:11:28;98313.00;;;21.79;29.53
10700;BME280;5401;41.986;21.452;2023-04-27T13:13:58;98314.16;;;21.73;29.25